sensor_id;sensor_type;location;lat;lon;timestamp;P1;durP1;ratioP1;P2;durP2;ratioP2
51614;SDS011;37695;52.960;6.188;2023-06-26T00:01:27;9.02;;;6.30;;
51614;SDS011;37695;52.960;6.188;2023-06-26T00:03:59;12.90;;;7.22;;
51614;SDS011;37695;52.960;6.188;2023-06-26T00:06:25;9.82;;;6.55;;
51614;SDS011;37695;52.960;6.188;2023-06-26T00:08:51;7.28;;;6.50;;
51614;SDS011;37695;52.960;6.188;2023-06-26T00:11:18;9.98;;;6.65;;
51614;SDS011;37695;52.960;6.188;2023-06-26T00:13:44;9.10;;;6.97;;
51614;SDS011;37695;52.960;6.188;2023-06-26T00:16:09;8.10;;;6.55;;
51614;SDS011;37695;52.960;6.188;2023-06-26T00:18:35;8.02;;;6.55;;
51614;SDS011;37695;52.960;6.188;2023-06-26T00:21:00;7.63;;;6.65;;
51614;SDS011;37695;52.960;6.188;2023-06-26T00:23:26;9.45;;;6.55;;
51614;SDS011;37695;52.960;6.188;2023-06-26T00:25:56;8.60;;;6.85;;
51614;SDS011;37695;52.960;6.188;2023-06-26T00:28:21;8.15;;;6.57;;
51614;SDS011;37695;52.960;6.188;2023-06-26T00:30:47;7.55;;;6.75;;
51614;SDS011;37695;52.960;6.188;2023-06-26T00:33:12;8.07;;;6.55;;
51614;SDS011;37695;52.960;6.188;2023-06-26T00:35:38;8.63;;;7.15;;
51614;SDS011;37695;52.960;6.188;2023-06-26T00:38:04;8.30;;;6.68;;
51614;SDS011;37695;52.960;6.188;2023-06-26T00:40:29;8.38;;;6.90;;
51614;SDS011;37695;52.960;6.188;2023-06-26T00:42:55;8.40;;;6.97;;
51614;SDS011;37695;52.960;6.188;2023-06-26T00:45:20;8.27;;;6.57;;
51614;SDS011;37695;52.960;6.188;2023-06-26T00:47:46;9.02;;;6.55;;
51614;SDS011;37695;52.960;6.188;2023-06-26T00:50:12;11.15;;;7.13;;
51614;SDS011;37695;52.960;6.188;2023-06-26T00:52:38;7.93;;;7.13;;
51614;SDS011;37695;52.960;6.188;2023-06-26T00:55:04;7.50;;;6.35;;
51614;SDS011;37695;52.960;6.188;2023-06-26T00:57:30;9.82;;;7.10;;
51614;SDS011;37695;52.960;6.188;2023-06-26T00:59:56;10.60;;;6.68;;
51614;SDS011;37695;52.960;6.188;2023-06-26T01:02:22;7.78;;;6.95;;
51614;SDS011;37695;52.960;6.188;2023-06-26T01:04:48;8.70;;;6.70;;
51614;SDS011;37695;52.960;6.188;2023-06-26T01:07:15;7.60;;;6.80;;
51614;SDS011;37695;52.960;6.188;2023-06-26T01:09:43;8.40;;;7.25;;
51614;SDS011;37695;52.960;6.188;2023-06-26T01:12:11;7.77;;;6.73;;
51614;SDS011;37695;52.960;6.188;2023-06-26T01:14:37;7.93;;;7.00;;
51614;SDS011;37695;52.960;6.188;2023-06-26T01:17:02;9.02;;;7.05;;
51614;SDS011;37695;52.960;6.188;2023-06-26T01:19:29;8.10;;;6.93;;
51614;SDS011;37695;52.960;6.188;2023-06-26T01:22:00;7.88;;;6.28;;
51614;SDS011;37695;52.960;6.188;2023-06-26T01:28:23;8.38;;;7.07;;
51614;SDS011;37695;52.960;6.188;2023-06-26T01:30:50;8.35;;;6.82;;
51614;SDS011;37695;52.960;6.188;2023-06-26T01:33:16;9.50;;;7.90;;
51614;SDS011;37695;52.960;6.188;2023-06-26T01:35:42;8.15;;;7.28;;
51614;SDS011;37695;52.960;6.188;2023-06-26T01:38:11;10.18;;;6.82;;
51614;SDS011;37695;52.960;6.188;2023-06-26T01:40:38;9.88;;;7.72;;
51614;SDS011;37695;52.960;6.188;2023-06-26T01:43:04;9.02;;;7.90;;
51614;SDS011;37695;52.960;6.188;2023-06-26T01:45:31;9.10;;;8.13;;
51614;SDS011;37695;52.960;6.188;2023-06-26T01:47:58;9.55;;;8.43;;
51614;SDS011;37695;52.960;6.188;2023-06-26T01:50:27;9.23;;;8.23;;
51614;SDS011;37695;52.960;6.188;2023-06-26T01:53:01;11.20;;;8.00;;
51614;SDS011;37695;52.960;6.188;2023-06-26T01:55:47;10.77;;;8.48;;
51614;SDS011;37695;52.960;6.188;2023-06-26T01:58:17;13.27;;;8.95;;
51614;SDS011;37695;52.960;6.188;2023-06-26T02:00:47;11.05;;;8.43;;
51614;SDS011;37695;52.960;6.188;2023-06-26T02:03:13;8.95;;;8.05;;
51614;SDS011;37695;52.960;6.188;2023-06-26T02:05:39;11.13;;;8.40;;
51614;SDS011;37695;52.960;6.188;2023-06-26T02:08:04;11.65;;;8.55;;
51614;SDS011;37695;52.960;6.188;2023-06-26T02:10:30;10.35;;;8.50;;
51614;SDS011;37695;52.960;6.188;2023-06-26T02:12:56;10.57;;;8.77;;
51614;SDS011;37695;52.960;6.188;2023-06-26T02:15:21;9.50;;;7.95;;
51614;SDS011;37695;52.960;6.188;2023-06-26T02:17:47;9.80;;;8.70;;
51614;SDS011;37695;52.960;6.188;2023-06-26T02:20:13;9.40;;;8.18;;
51614;SDS011;37695;52.960;6.188;2023-06-26T02:22:40;10.35;;;8.13;;
51614;SDS011;37695;52.960;6.188;2023-06-26T02:25:06;10.77;;;8.48;;
51614;SDS011;37695;52.960;6.188;2023-06-26T02:27:32;10.77;;;8.43;;
51614;SDS011;37695;52.960;6.188;2023-06-26T02:29:57;9.50;;;8.13;;
51614;SDS011;37695;52.960;6.188;2023-06-26T02:32:23;9.32;;;8.35;;
51614;SDS011;37695;52.960;6.188;2023-06-26T02:34:49;9.50;;;8.38;;
51614;SDS011;37695;52.960;6.188;2023-06-26T02:37:16;10.48;;;8.63;;
51614;SDS011;37695;52.960;6.188;2023-06-26T02:39:42;10.57;;;7.78;;
51614;SDS011;37695;52.960;6.188;2023-06-26T02:42:08;10.02;;;8.63;;
51614;SDS011;37695;52.960;6.188;2023-06-26T02:44:33;9.35;;;8.35;;
51614;SDS011;37695;52.960;6.188;2023-06-26T02:46:59;9.68;;;8.55;;
51614;SDS011;37695;52.960;6.188;2023-06-26T02:49:24;11.45;;;8.73;;
51614;SDS011;37695;52.960;6.188;2023-06-26T02:51:50;10.50;;;8.95;;
51614;SDS011;37695;52.960;6.188;2023-06-26T02:54:15;13.23;;;8.85;;
51614;SDS011;37695;52.960;6.188;2023-06-26T02:56:41;13.02;;;9.57;;
51614;SDS011;37695;52.960;6.188;2023-06-26T02:59:07;11.43;;;8.40;;
51614;SDS011;37695;52.960;6.188;2023-06-26T03:01:32;11.65;;;9.32;;
51614;SDS011;37695;52.960;6.188;2023-06-26T03:03:58;12.10;;;10.00;;
51614;SDS011;37695;52.960;6.188;2023-06-26T03:06:25;13.38;;;10.35;;
51614;SDS011;37695;52.960;6.188;2023-06-26T03:08:52;11.38;;;9.20;;
51614;SDS011;37695;52.960;6.188;2023-06-26T03:11:19;12.45;;;9.30;;
51614;SDS011;37695;52.960;6.188;2023-06-26T03:13:44;10.93;;;8.70;;
51614;SDS011;37695;52.960;6.188;2023-06-26T03:16:10;10.35;;;9.02;;
51614;SDS011;37695;52.960;6.188;2023-06-26T03:18:36;10.30;;;9.02;;
51614;SDS011;37695;52.960;6.188;2023-06-26T03:21:01;9.48;;;7.85;;
51614;SDS011;37695;52.960;6.188;2023-06-26T03:23:27;9.45;;;7.78;;
51614;SDS011;37695;52.960;6.188;2023-06-26T03:25:53;11.48;;;8.07;;
51614;SDS011;37695;52.960;6.188;2023-06-26T03:28:18;9.40;;;7.65;;
51614;SDS011;37695;52.960;6.188;2023-06-26T03:30:44;9.88;;;7.93;;
51614;SDS011;37695;52.960;6.188;2023-06-26T03:33:09;12.00;;;8.18;;
51614;SDS011;37695;52.960;6.188;2023-06-26T03:35:35;11.38;;;8.18;;
51614;SDS011;37695;52.960;6.188;2023-06-26T03:38:01;10.05;;;8.00;;
51614;SDS011;37695;52.960;6.188;2023-06-26T03:40:28;9.82;;;7.80;;
51614;SDS011;37695;52.960;6.188;2023-06-26T03:42:53;8.80;;;7.70;;
51614;SDS011;37695;52.960;6.188;2023-06-26T03:45:19;11.80;;;8.23;;
51614;SDS011;37695;52.960;6.188;2023-06-26T03:47:45;9.85;;;7.60;;
51614;SDS011;37695;52.960;6.188;2023-06-26T03:50:14;10.65;;;6.70;;
51614;SDS011;37695;52.960;6.188;2023-06-26T03:52:42;11.32;;;6.90;;
51614;SDS011;37695;52.960;6.188;2023-06-26T03:55:08;13.07;;;7.40;;
51614;SDS011;37695;52.960;6.188;2023-06-26T03:57:34;12.30;;;7.18;;
51614;SDS011;37695;52.960;6.188;2023-06-26T03:59:59;9.90;;;7.03;;
51614;SDS011;37695;52.960;6.188;2023-06-26T04:02:25;11.45;;;7.82;;
51614;SDS011;37695;52.960;6.188;2023-06-26T04:04:50;11.30;;;7.85;;
51614;SDS011;37695;52.960;6.188;2023-06-26T04:07:17;10.40;;;7.80;;
51614;SDS011;37695;52.960;6.188;2023-06-26T04:09:43;10.93;;;7.38;;
51614;SDS011;37695;52.960;6.188;2023-06-26T04:12:09;13.13;;;8.27;;
51614;SDS011;37695;52.960;6.188;2023-06-26T04:14:35;13.60;;;7.85;;
51614;SDS011;37695;52.960;6.188;2023-06-26T04:17:00;12.40;;;8.10;;
51614;SDS011;37695;52.960;6.188;2023-06-26T04:19:28;12.77;;;8.02;;
51614;SDS011;37695;52.960;6.188;2023-06-26T04:21:54;13.63;;;8.20;;
51614;SDS011;37695;52.960;6.188;2023-06-26T04:24:20;15.50;;;8.45;;
51614;SDS011;37695;52.960;6.188;2023-06-26T04:26:45;13.43;;;8.35;;
51614;SDS011;37695;52.960;6.188;2023-06-26T04:29:11;12.48;;;8.13;;
51614;SDS011;37695;52.960;6.188;2023-06-26T04:31:36;14.15;;;8.13;;
51614;SDS011;37695;52.960;6.188;2023-06-26T04:34:03;12.65;;;8.10;;
51614;SDS011;37695;52.960;6.188;2023-06-26T04:36:29;13.85;;;8.57;;
51614;SDS011;37695;52.960;6.188;2023-06-26T04:38:56;15.63;;;8.05;;
51614;SDS011;37695;52.960;6.188;2023-06-26T04:41:22;15.18;;;7.95;;
51614;SDS011;37695;52.960;6.188;2023-06-26T04:43:47;12.27;;;8.57;;
51614;SDS011;37695;52.960;6.188;2023-06-26T04:46:13;15.60;;;9.02;;
51614;SDS011;37695;52.960;6.188;2023-06-26T04:48:38;18.67;;;8.95;;
51614;SDS011;37695;52.960;6.188;2023-06-26T04:51:04;15.80;;;9.23;;
51614;SDS011;37695;52.960;6.188;2023-06-26T04:53:29;15.40;;;9.30;;
51614;SDS011;37695;52.960;6.188;2023-06-26T04:55:55;18.13;;;9.43;;
51614;SDS011;37695;52.960;6.188;2023-06-26T04:58:21;16.58;;;8.88;;
51614;SDS011;37695;52.960;6.188;2023-06-26T05:00:46;15.20;;;8.85;;
51614;SDS011;37695;52.960;6.188;2023-06-26T05:03:13;13.63;;;7.90;;
51614;SDS011;37695;52.960;6.188;2023-06-26T05:05:39;12.80;;;7.70;;
51614;SDS011;37695;52.960;6.188;2023-06-26T05:10:40;12.73;;;7.00;;
51614;SDS011;37695;52.960;6.188;2023-06-26T05:13:06;12.25;;;6.88;;
51614;SDS011;37695;52.960;6.188;2023-06-26T05:15:31;11.93;;;7.07;;
51614;SDS011;37695;52.960;6.188;2023-06-26T05:17:57;13.45;;;7.00;;
51614;SDS011;37695;52.960;6.188;2023-06-26T05:20:22;12.75;;;6.25;;
51614;SDS011;37695;52.960;6.188;2023-06-26T05:22:48;10.63;;;6.07;;
51614;SDS011;37695;52.960;6.188;2023-06-26T05:25:14;12.80;;;5.68;;
51614;SDS011;37695;52.960;6.188;2023-06-26T05:27:40;10.55;;;5.28;;
51614;SDS011;37695;52.960;6.188;2023-06-26T05:30:06;7.93;;;4.53;;
51614;SDS011;37695;52.960;6.188;2023-06-26T05:32:34;12.18;;;4.70;;
51614;SDS011;37695;52.960;6.188;2023-06-26T05:35:02;10.05;;;4.90;;
51614;SDS011;37695;52.960;6.188;2023-06-26T05:37:28;11.23;;;4.32;;
51614;SDS011;37695;52.960;6.188;2023-06-26T05:39:55;11.75;;;4.95;;
51614;SDS011;37695;52.960;6.188;2023-06-26T05:42:21;12.40;;;4.82;;
51614;SDS011;37695;52.960;6.188;2023-06-26T05:44:47;10.43;;;4.47;;
51614;SDS011;37695;52.960;6.188;2023-06-26T05:47:13;8.77;;;4.13;;
51614;SDS011;37695;52.960;6.188;2023-06-26T05:49:38;9.40;;;4.13;;
51614;SDS011;37695;52.960;6.188;2023-06-26T05:52:04;9.57;;;3.83;;
51614;SDS011;37695;52.960;6.188;2023-06-26T05:54:30;10.40;;;3.85;;
51614;SDS011;37695;52.960;6.188;2023-06-26T05:56:56;10.55;;;4.32;;
51614;SDS011;37695;52.960;6.188;2023-06-26T05:59:25;8.45;;;4.10;;
51614;SDS011;37695;52.960;6.188;2023-06-26T06:01:51;10.00;;;4.03;;
51614;SDS011;37695;52.960;6.188;2023-06-26T06:04:17;13.27;;;4.63;;
51614;SDS011;37695;52.960;6.188;2023-06-26T06:06:43;11.27;;;4.25;;
51614;SDS011;37695;52.960;6.188;2023-06-26T06:09:08;10.43;;;3.55;;
51614;SDS011;37695;52.960;6.188;2023-06-26T06:11:34;6.97;;;3.30;;
51614;SDS011;37695;52.960;6.188;2023-06-26T06:13:59;7.72;;;3.70;;
51614;SDS011;37695;52.960;6.188;2023-06-26T06:16:25;8.95;;;3.72;;
51614;SDS011;37695;52.960;6.188;2023-06-26T06:18:53;12.20;;;4.22;;
51614;SDS011;37695;52.960;6.188;2023-06-26T06:21:19;11.43;;;3.50;;
51614;SDS011;37695;52.960;6.188;2023-06-26T06:23:45;8.20;;;3.75;;
51614;SDS011;37695;52.960;6.188;2023-06-26T06:26:10;6.65;;;2.80;;
51614;SDS011;37695;52.960;6.188;2023-06-26T06:28:36;7.47;;;3.08;;
51614;SDS011;37695;52.960;6.188;2023-06-26T06:31:03;8.20;;;3.55;;
51614;SDS011;37695;52.960;6.188;2023-06-26T06:33:28;7.93;;;2.92;;
51614;SDS011;37695;52.960;6.188;2023-06-26T06:35:54;7.35;;;2.92;;
51614;SDS011;37695;52.960;6.188;2023-06-26T06:38:19;8.38;;;3.53;;
51614;SDS011;37695;52.960;6.188;2023-06-26T06:40:45;7.60;;;2.95;;
51614;SDS011;37695;52.960;6.188;2023-06-26T06:43:10;7.43;;;3.05;;
51614;SDS011;37695;52.960;6.188;2023-06-26T06:45:36;9.15;;;3.28;;
51614;SDS011;37695;52.960;6.188;2023-06-26T06:48:03;5.65;;;2.67;;
51614;SDS011;37695;52.960;6.188;2023-06-26T06:50:29;7.55;;;3.10;;
51614;SDS011;37695;52.960;6.188;2023-06-26T06:52:54;6.43;;;2.72;;
51614;SDS011;37695;52.960;6.188;2023-06-26T06:55:20;5.95;;;2.60;;
51614;SDS011;37695;52.960;6.188;2023-06-26T06:57:46;6.72;;;2.80;;
51614;SDS011;37695;52.960;6.188;2023-06-26T07:00:12;5.95;;;2.67;;
51614;SDS011;37695;52.960;6.188;2023-06-26T07:02:40;5.95;;;2.53;;
51614;SDS011;37695;52.960;6.188;2023-06-26T07:05:07;7.35;;;2.45;;
51614;SDS011;37695;52.960;6.188;2023-06-26T07:07:33;6.28;;;2.50;;
51614;SDS011;37695;52.960;6.188;2023-06-26T07:10:01;7.10;;;3.08;;
51614;SDS011;37695;52.960;6.188;2023-06-26T07:12:29;6.30;;;2.65;;
51614;SDS011;37695;52.960;6.188;2023-06-26T07:14:55;6.45;;;2.65;;
51614;SDS011;37695;52.960;6.188;2023-06-26T07:17:21;8.15;;;2.90;;
51614;SDS011;37695;52.960;6.188;2023-06-26T07:19:47;7.28;;;2.70;;
51614;SDS011;37695;52.960;6.188;2023-06-26T07:22:13;10.48;;;3.05;;
51614;SDS011;37695;52.960;6.188;2023-06-26T07:24:39;7.85;;;2.42;;
51614;SDS011;37695;52.960;6.188;2023-06-26T07:27:04;5.78;;;2.30;;
51614;SDS011;37695;52.960;6.188;2023-06-26T07:29:30;6.65;;;2.72;;
51614;SDS011;37695;52.960;6.188;2023-06-26T07:31:55;6.05;;;2.28;;
51614;SDS011;37695;52.960;6.188;2023-06-26T07:34:21;6.60;;;2.42;;
51614;SDS011;37695;52.960;6.188;2023-06-26T07:36:46;6.03;;;2.10;;
51614;SDS011;37695;52.960;6.188;2023-06-26T07:39:12;6.60;;;1.88;;
51614;SDS011;37695;52.960;6.188;2023-06-26T07:41:37;5.30;;;2.30;;
51614;SDS011;37695;52.960;6.188;2023-06-26T07:44:03;4.55;;;1.85;;
51614;SDS011;37695;52.960;6.188;2023-06-26T07:46:28;4.85;;;2.28;;
51614;SDS011;37695;52.960;6.188;2023-06-26T07:48:54;5.47;;;2.45;;
51614;SDS011;37695;52.960;6.188;2023-06-26T07:51:20;5.88;;;2.70;;
51614;SDS011;37695;52.960;6.188;2023-06-26T07:53:46;7.10;;;2.65;;
51614;SDS011;37695;52.960;6.188;2023-06-26T07:56:11;10.20;;;2.53;;
51614;SDS011;37695;52.960;6.188;2023-06-26T07:58:37;6.18;;;2.58;;
51614;SDS011;37695;52.960;6.188;2023-06-26T08:01:02;8.40;;;2.85;;
51614;SDS011;37695;52.960;6.188;2023-06-26T08:03:29;5.82;;;2.35;;
51614;SDS011;37695;52.960;6.188;2023-06-26T08:05:55;7.30;;;2.83;;
51614;SDS011;37695;52.960;6.188;2023-06-26T08:08:20;5.22;;;2.72;;
51614;SDS011;37695;52.960;6.188;2023-06-26T08:10:46;4.63;;;2.40;;
51614;SDS011;37695;52.960;6.188;2023-06-26T08:13:11;7.20;;;2.78;;
51614;SDS011;37695;52.960;6.188;2023-06-26T08:15:37;7.15;;;2.88;;
51614;SDS011;37695;52.960;6.188;2023-06-26T08:18:02;5.03;;;2.35;;
51614;SDS011;37695;52.960;6.188;2023-06-26T08:20:28;6.25;;;2.58;;
51614;SDS011;37695;52.960;6.188;2023-06-26T08:22:54;7.75;;;2.40;;
51614;SDS011;37695;52.960;6.188;2023-06-26T08:25:20;4.95;;;2.40;;
51614;SDS011;37695;52.960;6.188;2023-06-26T08:27:46;5.82;;;2.20;;
51614;SDS011;37695;52.960;6.188;2023-06-26T08:30:11;6.25;;;2.63;;
51614;SDS011;37695;52.960;6.188;2023-06-26T08:32:38;5.75;;;2.72;;
51614;SDS011;37695;52.960;6.188;2023-06-26T08:35:05;7.93;;;3.03;;
51614;SDS011;37695;52.960;6.188;2023-06-26T08:37:31;5.78;;;2.53;;
51614;SDS011;37695;52.960;6.188;2023-06-26T08:39:57;5.65;;;2.70;;
51614;SDS011;37695;52.960;6.188;2023-06-26T08:42:24;6.78;;;2.83;;
51614;SDS011;37695;52.960;6.188;2023-06-26T08:44:50;7.15;;;3.05;;
51614;SDS011;37695;52.960;6.188;2023-06-26T08:47:15;9.13;;;3.00;;
51614;SDS011;37695;52.960;6.188;2023-06-26T08:52:28;7.22;;;2.95;;
51614;SDS011;37695;52.960;6.188;2023-06-26T08:54:57;5.60;;;2.55;;
51614;SDS011;37695;52.960;6.188;2023-06-26T08:57:24;5.63;;;2.53;;
51614;SDS011;37695;52.960;6.188;2023-06-26T08:59:51;6.50;;;2.63;;
51614;SDS011;37695;52.960;6.188;2023-06-26T09:02:17;7.20;;;2.55;;
51614;SDS011;37695;52.960;6.188;2023-06-26T09:04:45;4.95;;;2.40;;
51614;SDS011;37695;52.960;6.188;2023-06-26T09:07:12;6.18;;;3.10;;
51614;SDS011;37695;52.960;6.188;2023-06-26T09:09:38;6.70;;;3.10;;
51614;SDS011;37695;52.960;6.188;2023-06-26T09:12:04;7.75;;;3.53;;
51614;SDS011;37695;52.960;6.188;2023-06-26T09:14:30;5.18;;;3.00;;
51614;SDS011;37695;52.960;6.188;2023-06-26T09:16:55;6.88;;;3.08;;
51614;SDS011;37695;52.960;6.188;2023-06-26T09:19:21;7.05;;;3.30;;
51614;SDS011;37695;52.960;6.188;2023-06-26T09:21:48;7.38;;;3.08;;
51614;SDS011;37695;52.960;6.188;2023-06-26T09:24:16;6.68;;;3.40;;
51614;SDS011;37695;52.960;6.188;2023-06-26T09:26:42;5.78;;;2.72;;
51614;SDS011;37695;52.960;6.188;2023-06-26T09:29:09;5.95;;;3.20;;
51614;SDS011;37695;52.960;6.188;2023-06-26T09:31:38;6.53;;;3.05;;
51614;SDS011;37695;52.960;6.188;2023-06-26T09:34:04;6.85;;;3.05;;
51614;SDS011;37695;52.960;6.188;2023-06-26T09:36:30;7.50;;;3.55;;
51614;SDS011;37695;52.960;6.188;2023-06-26T09:39:01;8.02;;;3.30;;
51614;SDS011;37695;52.960;6.188;2023-06-26T09:41:29;7.15;;;3.38;;
51614;SDS011;37695;52.960;6.188;2023-06-26T09:43:56;6.35;;;3.05;;
51614;SDS011;37695;52.960;6.188;2023-06-26T09:46:26;9.02;;;3.22;;
51614;SDS011;37695;52.960;6.188;2023-06-26T09:49:02;7.00;;;3.17;;
51614;SDS011;37695;52.960;6.188;2023-06-26T09:51:38;9.32;;;3.50;;
51614;SDS011;37695;52.960;6.188;2023-06-26T09:54:05;5.55;;;2.92;;
51614;SDS011;37695;52.960;6.188;2023-06-26T09:56:31;7.32;;;2.60;;
51614;SDS011;37695;52.960;6.188;2023-06-26T09:59:01;5.45;;;2.92;;
51614;SDS011;37695;52.960;6.188;2023-06-26T10:01:29;9.25;;;2.90;;
51614;SDS011;37695;52.960;6.188;2023-06-26T10:03:55;7.88;;;3.00;;
51614;SDS011;37695;52.960;6.188;2023-06-26T10:06:27;7.10;;;3.00;;
51614;SDS011;37695;52.960;6.188;2023-06-26T10:08:54;7.32;;;2.97;;
51614;SDS011;37695;52.960;6.188;2023-06-26T10:11:22;6.05;;;3.13;;
51614;SDS011;37695;52.960;6.188;2023-06-26T10:13:54;7.55;;;3.20;;
51614;SDS011;37695;52.960;6.188;2023-06-26T10:16:23;5.50;;;2.47;;
51614;SDS011;37695;52.960;6.188;2023-06-26T10:18:53;6.15;;;2.63;;
51614;SDS011;37695;52.960;6.188;2023-06-26T10:21:21;7.13;;;2.58;;
51614;SDS011;37695;52.960;6.188;2023-06-26T10:23:48;6.28;;;3.13;;
51614;SDS011;37695;52.960;6.188;2023-06-26T10:26:16;6.82;;;2.72;;
51614;SDS011;37695;52.960;6.188;2023-06-26T10:28:43;5.40;;;3.05;;
51614;SDS011;37695;52.960;6.188;2023-06-26T10:31:13;7.03;;;2.60;;
51614;SDS011;37695;52.960;6.188;2023-06-26T10:33:38;7.53;;;2.78;;
51614;SDS011;37695;52.960;6.188;2023-06-26T10:36:14;6.18;;;2.95;;
51614;SDS011;37695;52.960;6.188;2023-06-26T10:38:50;7.55;;;2.60;;
51614;SDS011;37695;52.960;6.188;2023-06-26T10:41:21;9.10;;;3.00;;
51614;SDS011;37695;52.960;6.188;2023-06-26T10:43:52;6.93;;;3.00;;
51614;SDS011;37695;52.960;6.188;2023-06-26T10:46:33;5.20;;;2.55;;
51614;SDS011;37695;52.960;6.188;2023-06-26T10:49:13;7.80;;;2.90;;
51614;SDS011;37695;52.960;6.188;2023-06-26T10:51:38;8.82;;;2.80;;
51614;SDS011;37695;52.960;6.188;2023-06-26T10:54:15;9.50;;;2.78;;
51614;SDS011;37695;52.960;6.188;2023-06-26T10:56:46;5.68;;;2.60;;
51614;SDS011;37695;52.960;6.188;2023-06-26T10:59:19;5.72;;;2.60;;
51614;SDS011;37695;52.960;6.188;2023-06-26T11:01:46;7.40;;;2.67;;
51614;SDS011;37695;52.960;6.188;2023-06-26T11:07:14;6.93;;;2.42;;
51614;SDS011;37695;52.960;6.188;2023-06-26T11:09:53;5.75;;;2.58;;
51614;SDS011;37695;52.960;6.188;2023-06-26T11:15:16;6.72;;;2.10;;
51614;SDS011;37695;52.960;6.188;2023-06-26T11:17:43;8.50;;;2.50;;
51614;SDS011;37695;52.960;6.188;2023-06-26T11:20:10;4.93;;;2.10;;
51614;SDS011;37695;52.960;6.188;2023-06-26T11:22:38;4.85;;;1.90;;
51614;SDS011;37695;52.960;6.188;2023-06-26T11:25:05;6.50;;;2.10;;
51614;SDS011;37695;52.960;6.188;2023-06-26T11:30:04;4.18;;;2.10;;
51614;SDS011;37695;52.960;6.188;2023-06-26T11:32:30;6.35;;;2.00;;
51614;SDS011;37695;52.960;6.188;2023-06-26T11:34:57;7.38;;;2.30;;
51614;SDS011;37695;52.960;6.188;2023-06-26T11:37:24;7.30;;;2.30;;
51614;SDS011;37695;52.960;6.188;2023-06-26T11:39:49;4.38;;;1.83;;
51614;SDS011;37695;52.960;6.188;2023-06-26T11:42:16;9.23;;;2.78;;
51614;SDS011;37695;52.960;6.188;2023-06-26T11:44:42;5.00;;;2.22;;
51614;SDS011;37695;52.960;6.188;2023-06-26T11:47:12;8.35;;;2.60;;
51614;SDS011;37695;52.960;6.188;2023-06-26T11:49:39;6.95;;;1.92;;
51614;SDS011;37695;52.960;6.188;2023-06-26T11:52:11;6.38;;;2.05;;
51614;SDS011;37695;52.960;6.188;2023-06-26T11:54:37;8.10;;;2.00;;
51614;SDS011;37695;52.960;6.188;2023-06-26T11:57:03;5.38;;;2.05;;
51614;SDS011;37695;52.960;6.188;2023-06-26T11:59:36;6.85;;;2.20;;
51614;SDS011;37695;52.960;6.188;2023-06-26T12:02:05;6.57;;;2.45;;
51614;SDS011;37695;52.960;6.188;2023-06-26T12:04:31;7.63;;;2.20;;
51614;SDS011;37695;52.960;6.188;2023-06-26T12:06:58;5.93;;;2.10;;
51614;SDS011;37695;52.960;6.188;2023-06-26T12:09:25;7.40;;;2.20;;
51614;SDS011;37695;52.960;6.188;2023-06-26T12:11:52;6.80;;;2.50;;
51614;SDS011;37695;52.960;6.188;2023-06-26T12:14:19;7.47;;;2.67;;
51614;SDS011;37695;52.960;6.188;2023-06-26T12:16:47;6.07;;;2.22;;
51614;SDS011;37695;52.960;6.188;2023-06-26T12:19:12;6.05;;;2.00;;
51614;SDS011;37695;52.960;6.188;2023-06-26T12:24:17;6.60;;;2.15;;
51614;SDS011;37695;52.960;6.188;2023-06-26T12:26:44;8.35;;;2.53;;
51614;SDS011;37695;52.960;6.188;2023-06-26T12:29:12;5.20;;;2.03;;
51614;SDS011;37695;52.960;6.188;2023-06-26T12:31:43;8.35;;;2.65;;
51614;SDS011;37695;52.960;6.188;2023-06-26T12:34:10;4.90;;;2.20;;
51614;SDS011;37695;52.960;6.188;2023-06-26T12:36:46;8.35;;;2.42;;
51614;SDS011;37695;52.960;6.188;2023-06-26T12:39:15;12.35;;;2.47;;
51614;SDS011;37695;52.960;6.188;2023-06-26T12:41:49;6.78;;;2.60;;
51614;SDS011;37695;52.960;6.188;2023-06-26T12:44:22;12.07;;;2.58;;
51614;SDS011;37695;52.960;6.188;2023-06-26T12:46:54;6.35;;;2.25;;
51614;SDS011;37695;52.960;6.188;2023-06-26T12:49:31;8.70;;;2.20;;
51614;SDS011;37695;52.960;6.188;2023-06-26T12:52:02;7.38;;;2.17;;
51614;SDS011;37695;52.960;6.188;2023-06-26T12:54:30;6.97;;;2.35;;
51614;SDS011;37695;52.960;6.188;2023-06-26T12:56:56;5.25;;;2.28;;
51614;SDS011;37695;52.960;6.188;2023-06-26T12:59:22;8.48;;;2.55;;
51614;SDS011;37695;52.960;6.188;2023-06-26T13:01:48;7.78;;;2.38;;
51614;SDS011;37695;52.960;6.188;2023-06-26T13:04:14;6.05;;;1.92;;
51614;SDS011;37695;52.960;6.188;2023-06-26T13:06:40;6.30;;;2.25;;
51614;SDS011;37695;52.960;6.188;2023-06-26T13:09:06;6.57;;;2.38;;
51614;SDS011;37695;52.960;6.188;2023-06-26T13:11:32;7.03;;;2.38;;
51614;SDS011;37695;52.960;6.188;2023-06-26T13:13:58;11.80;;;2.83;;
51614;SDS011;37695;52.960;6.188;2023-06-26T13:16:24;7.53;;;2.78;;
51614;SDS011;37695;52.960;6.188;2023-06-26T13:18:50;7.25;;;2.70;;
51614;SDS011;37695;52.960;6.188;2023-06-26T13:21:16;6.60;;;2.25;;
51614;SDS011;37695;52.960;6.188;2023-06-26T13:23:42;7.28;;;2.70;;
51614;SDS011;37695;52.960;6.188;2023-06-26T13:26:08;8.07;;;2.50;;
51614;SDS011;37695;52.960;6.188;2023-06-26T13:28:35;9.35;;;3.03;;
51614;SDS011;37695;52.960;6.188;2023-06-26T13:31:01;12.25;;;2.55;;
51614;SDS011;37695;52.960;6.188;2023-06-26T13:33:27;8.07;;;2.78;;
51614;SDS011;37695;52.960;6.188;2023-06-26T13:35:53;8.75;;;2.60;;
51614;SDS011;37695;52.960;6.188;2023-06-26T13:38:19;6.70;;;2.70;;
51614;SDS011;37695;52.960;6.188;2023-06-26T13:40:50;7.82;;;2.60;;
51614;SDS011;37695;52.960;6.188;2023-06-26T13:43:20;11.70;;;2.90;;
51614;SDS011;37695;52.960;6.188;2023-06-26T13:45:46;10.63;;;2.10;;
51614;SDS011;37695;52.960;6.188;2023-06-26T13:48:12;6.93;;;2.50;;
51614;SDS011;37695;52.960;6.188;2023-06-26T13:50:38;7.15;;;2.28;;
51614;SDS011;37695;52.960;6.188;2023-06-26T13:53:03;8.52;;;2.80;;
51614;SDS011;37695;52.960;6.188;2023-06-26T13:55:29;8.10;;;2.47;;
51614;SDS011;37695;52.960;6.188;2023-06-26T13:57:55;6.28;;;2.20;;
51614;SDS011;37695;52.960;6.188;2023-06-26T14:00:21;6.00;;;2.40;;
51614;SDS011;37695;52.960;6.188;2023-06-26T14:02:47;6.25;;;2.50;;
51614;SDS011;37695;52.960;6.188;2023-06-26T14:05:13;4.10;;;1.92;;
51614;SDS011;37695;52.960;6.188;2023-06-26T14:07:38;6.10;;;2.05;;
51614;SDS011;37695;52.960;6.188;2023-06-26T14:10:04;8.40;;;2.58;;
51614;SDS011;37695;52.960;6.188;2023-06-26T14:12:31;7.20;;;2.33;;
51614;SDS011;37695;52.960;6.188;2023-06-26T14:14:57;8.18;;;2.60;;
51614;SDS011;37695;52.960;6.188;2023-06-26T14:17:23;8.52;;;2.45;;
51614;SDS011;37695;52.960;6.188;2023-06-26T14:19:54;6.43;;;2.30;;
51614;SDS011;37695;52.960;6.188;2023-06-26T14:22:19;8.02;;;2.45;;
51614;SDS011;37695;52.960;6.188;2023-06-26T14:24:45;4.57;;;2.17;;
51614;SDS011;37695;52.960;6.188;2023-06-26T14:27:11;6.97;;;2.40;;
51614;SDS011;37695;52.960;6.188;2023-06-26T14:29:37;5.65;;;2.40;;
51614;SDS011;37695;52.960;6.188;2023-06-26T14:32:03;9.38;;;2.50;;
51614;SDS011;37695;52.960;6.188;2023-06-26T14:34:29;9.75;;;2.55;;
51614;SDS011;37695;52.960;6.188;2023-06-26T14:36:54;5.43;;;1.80;;
51614;SDS011;37695;52.960;6.188;2023-06-26T14:39:20;6.10;;;2.30;;
51614;SDS011;37695;52.960;6.188;2023-06-26T14:41:46;8.65;;;2.28;;
51614;SDS011;37695;52.960;6.188;2023-06-26T14:44:15;6.53;;;2.35;;
51614;SDS011;37695;52.960;6.188;2023-06-26T14:46:40;5.45;;;2.13;;
51614;SDS011;37695;52.960;6.188;2023-06-26T14:49:06;7.72;;;2.40;;
51614;SDS011;37695;52.960;6.188;2023-06-26T14:51:32;4.95;;;1.83;;
51614;SDS011;37695;52.960;6.188;2023-06-26T14:53:58;5.22;;;2.30;;
51614;SDS011;37695;52.960;6.188;2023-06-26T14:56:24;6.22;;;2.03;;
51614;SDS011;37695;52.960;6.188;2023-06-26T14:58:50;7.15;;;2.40;;
51614;SDS011;37695;52.960;6.188;2023-06-26T15:01:19;11.43;;;2.55;;